MMPR/PVR METAR and TAF weather

Enter ICAO airport designator
Station Type Date Time Source
MMPR METAR 2020/01/20 21:49 UTC NOAA

MMPR 202149Z 21009KT 15SM FEW025TCU 28/23 A2991 RMK 8/200 DSNT CBS/E AND SE


Station Type Date Time Source
MMPR Decoded METAR 2020/01/20 21:49 UTC NOAA

Puerto Vallarta / Lic, Mexico (MMPR) 20-41N 105-15W
Jan 20, 2020 - 04:49 PM EST / 2020.01.20 2149 UTC
Wind: from the SSW (210 degrees) at 10 MPH (9 KT):0
Visibility: 15 mile(s):0
Sky conditions: mostly clear
Weather: Cumulonimbus clouds, towering cumulus clouds observed
Temperature: 82 F (28 C)
Dew Point: 73 F (23 C)
Relative Humidity: 74%
Pressure (altimeter): 29.91 in. Hg (1012 hPa)
ob: MMPR 202149Z 21009KT 15SM FEW025TCU 28/23 A2991 RMK 8/200 DSNT CBS/E AND SE
cycle: 22

Station Type Date Time Source
MMPR TAF 2020/01/20 18:54 UTC NOAA

TAF MMPR 201647Z 2018/2124 21008KT P6SM SCT030 SCT090 TX28/2021Z TN22/2112Z
FM210400 00000KT P6SM BKN020
FM211800 21008KT P6SM BKN025

Example: see airport list